sensor_id;sensor_type;location;lat;lon;timestamp;P1;durP1;ratioP1;P2;durP2;ratioP2
74972;SDS011;63529;56.320;43.990;2023-02-01T00:00:26;15.68;;;5.78;;
74972;SDS011;63529;56.320;43.990;2023-02-01T00:02:52;11.65;;;4.65;;
74972;SDS011;63529;56.320;43.990;2023-02-01T00:05:18;16.45;;;5.88;;
74972;SDS011;63529;56.320;43.990;2023-02-01T00:07:44;14.70;;;5.43;;
74972;SDS011;63529;56.320;43.990;2023-02-01T00:10:12;17.70;;;6.10;;
74972;SDS011;63529;56.320;43.990;2023-02-01T00:12:38;16.85;;;5.88;;
74972;SDS011;63529;56.320;43.990;2023-02-01T00:15:04;16.90;;;6.07;;
74972;SDS011;63529;56.320;43.990;2023-02-01T00:17:31;16.05;;;6.25;;
74972;SDS011;63529;56.320;43.990;2023-02-01T00:19:56;19.85;;;6.35;;
74972;SDS011;63529;56.320;43.990;2023-02-01T00:22:22;15.07;;;5.90;;
74972;SDS011;63529;56.320;43.990;2023-02-01T00:24:48;13.88;;;5.10;;
74972;SDS011;63529;56.320;43.990;2023-02-01T00:27:14;19.58;;;6.55;;
74972;SDS011;63529;56.320;43.990;2023-02-01T00:29:43;21.05;;;6.97;;
74972;SDS011;63529;56.320;43.990;2023-02-01T00:32:10;16.67;;;6.03;;
74972;SDS011;63529;56.320;43.990;2023-02-01T00:34:36;17.05;;;6.72;;
74972;SDS011;63529;56.320;43.990;2023-02-01T00:37:02;15.20;;;5.00;;
74972;SDS011;63529;56.320;43.990;2023-02-01T00:39:28;18.40;;;7.00;;
74972;SDS011;63529;56.320;43.990;2023-02-01T00:41:54;11.63;;;4.70;;
74972;SDS011;63529;56.320;43.990;2023-02-01T00:44:20;19.20;;;6.43;;
74972;SDS011;63529;56.320;43.990;2023-02-01T00:46:46;15.68;;;6.13;;
74972;SDS011;63529;56.320;43.990;2023-02-01T00:49:11;14.93;;;5.88;;
74972;SDS011;63529;56.320;43.990;2023-02-01T00:51:37;20.40;;;6.72;;
74972;SDS011;63529;56.320;43.990;2023-02-01T00:54:03;17.00;;;5.93;;
74972;SDS011;63529;56.320;43.990;2023-02-01T00:56:29;16.58;;;5.63;;
74972;SDS011;63529;56.320;43.990;2023-02-01T00:58:55;12.73;;;5.18;;
74972;SDS011;63529;56.320;43.990;2023-02-01T01:01:22;18.88;;;6.82;;
74972;SDS011;63529;56.320;43.990;2023-02-01T01:03:51;17.50;;;5.95;;
74972;SDS011;63529;56.320;43.990;2023-02-01T01:06:20;17.67;;;6.03;;
74972;SDS011;63529;56.320;43.990;2023-02-01T01:08:50;12.50;;;4.45;;
74972;SDS011;63529;56.320;43.990;2023-02-01T01:11:25;18.02;;;6.32;;
74972;SDS011;63529;56.320;43.990;2023-02-01T01:13:54;20.92;;;6.82;;
74972;SDS011;63529;56.320;43.990;2023-02-01T01:16:21;18.90;;;6.35;;
74972;SDS011;63529;56.320;43.990;2023-02-01T01:18:49;15.38;;;6.32;;
74972;SDS011;63529;56.320;43.990;2023-02-01T01:21:16;19.75;;;6.28;;
74972;SDS011;63529;56.320;43.990;2023-02-01T01:23:42;15.43;;;4.57;;
74972;SDS011;63529;56.320;43.990;2023-02-01T01:26:11;15.93;;;6.03;;
74972;SDS011;63529;56.320;43.990;2023-02-01T01:31:09;16.30;;;4.90;;
74972;SDS011;63529;56.320;43.990;2023-02-01T01:33:37;14.27;;;5.30;;
74972;SDS011;63529;56.320;43.990;2023-02-01T01:36:04;16.20;;;5.95;;
74972;SDS011;63529;56.320;43.990;2023-02-01T01:38:31;22.10;;;7.03;;
74972;SDS011;63529;56.320;43.990;2023-02-01T01:40:58;15.45;;;5.45;;
74972;SDS011;63529;56.320;43.990;2023-02-01T01:43:24;18.08;;;6.50;;
74972;SDS011;63529;56.320;43.990;2023-02-01T01:45:52;18.15;;;6.72;;
74972;SDS011;63529;56.320;43.990;2023-02-01T01:48:28;17.70;;;5.95;;
74972;SDS011;63529;56.320;43.990;2023-02-01T01:51:03;18.08;;;6.50;;
74972;SDS011;63529;56.320;43.990;2023-02-01T01:53:45;19.73;;;7.20;;
74972;SDS011;63529;56.320;43.990;2023-02-01T01:56:16;16.88;;;6.72;;
74972;SDS011;63529;56.320;43.990;2023-02-01T01:58:43;19.30;;;6.70;;
74972;SDS011;63529;56.320;43.990;2023-02-01T02:01:09;19.08;;;7.05;;
74972;SDS011;63529;56.320;43.990;2023-02-01T02:03:39;19.52;;;7.57;;
74972;SDS011;63529;56.320;43.990;2023-02-01T02:09:10;18.00;;;7.40;;
74972;SDS011;63529;56.320;43.990;2023-02-01T02:11:36;19.08;;;6.90;;
74972;SDS011;63529;56.320;43.990;2023-02-01T02:14:02;21.63;;;7.43;;
74972;SDS011;63529;56.320;43.990;2023-02-01T02:16:39;14.27;;;5.38;;
74972;SDS011;63529;56.320;43.990;2023-02-01T02:19:16;20.98;;;5.90;;
74972;SDS011;63529;56.320;43.990;2023-02-01T02:27:12;15.80;;;6.10;;
74972;SDS011;63529;56.320;43.990;2023-02-01T02:35:48;17.85;;;6.45;;
74972;SDS011;63529;56.320;43.990;2023-02-01T02:38:32;19.42;;;6.57;;
74972;SDS011;63529;56.320;43.990;2023-02-01T02:46:44;22.90;;;8.40;;
74972;SDS011;63529;56.320;43.990;2023-02-01T02:52:03;22.33;;;7.30;;
74972;SDS011;63529;56.320;43.990;2023-02-01T02:54:53;14.23;;;6.15;;
74972;SDS011;63529;56.320;43.990;2023-02-01T03:00:18;22.83;;;7.53;;
74972;SDS011;63529;56.320;43.990;2023-02-01T03:03:05;22.05;;;8.77;;
74972;SDS011;63529;56.320;43.990;2023-02-01T03:05:50;18.65;;;7.28;;
74972;SDS011;63529;56.320;43.990;2023-02-01T03:08:18;22.00;;;7.82;;
74972;SDS011;63529;56.320;43.990;2023-02-01T03:15:57;23.08;;;7.00;;
74972;SDS011;63529;56.320;43.990;2023-02-01T03:21:32;18.02;;;5.82;;
74972;SDS011;63529;56.320;43.990;2023-02-01T03:24:10;20.10;;;7.13;;
74972;SDS011;63529;56.320;43.990;2023-02-01T03:26:45;20.50;;;6.65;;
74972;SDS011;63529;56.320;43.990;2023-02-01T03:29:22;20.25;;;7.78;;
74972;SDS011;63529;56.320;43.990;2023-02-01T03:31:52;19.63;;;6.72;;
74972;SDS011;63529;56.320;43.990;2023-02-01T03:34:18;22.50;;;7.97;;
74972;SDS011;63529;56.320;43.990;2023-02-01T03:36:47;21.95;;;6.95;;
74972;SDS011;63529;56.320;43.990;2023-02-01T03:39:25;24.08;;;8.43;;
74972;SDS011;63529;56.320;43.990;2023-02-01T03:42:00;23.02;;;7.20;;
74972;SDS011;63529;56.320;43.990;2023-02-01T03:44:31;18.63;;;6.25;;
74972;SDS011;63529;56.320;43.990;2023-02-01T03:47:08;24.70;;;7.93;;
74972;SDS011;63529;56.320;43.990;2023-02-01T03:49:46;21.58;;;7.82;;
74972;SDS011;63529;56.320;43.990;2023-02-01T03:52:30;24.85;;;8.40;;
74972;SDS011;63529;56.320;43.990;2023-02-01T03:55:03;21.30;;;7.05;;
74972;SDS011;63529;56.320;43.990;2023-02-01T03:57:32;18.50;;;6.70;;
74972;SDS011;63529;56.320;43.990;2023-02-01T04:00:06;22.67;;;8.45;;
74972;SDS011;63529;56.320;43.990;2023-02-01T04:02:43;21.02;;;7.03;;
74972;SDS011;63529;56.320;43.990;2023-02-01T04:05:09;25.35;;;8.00;;
74972;SDS011;63529;56.320;43.990;2023-02-01T04:07:42;16.70;;;6.55;;
74972;SDS011;63529;56.320;43.990;2023-02-01T04:10:09;17.38;;;6.40;;
74972;SDS011;63529;56.320;43.990;2023-02-01T04:12:38;22.17;;;8.00;;
74972;SDS011;63529;56.320;43.990;2023-02-01T04:15:04;27.05;;;8.38;;
74972;SDS011;63529;56.320;43.990;2023-02-01T04:17:30;20.45;;;7.00;;
74972;SDS011;63529;56.320;43.990;2023-02-01T04:19:56;23.17;;;8.15;;
74972;SDS011;63529;56.320;43.990;2023-02-01T04:22:22;24.98;;;8.75;;
74972;SDS011;63529;56.320;43.990;2023-02-01T04:24:48;23.08;;;8.05;;
74972;SDS011;63529;56.320;43.990;2023-02-01T04:27:14;21.50;;;8.40;;
74972;SDS011;63529;56.320;43.990;2023-02-01T04:29:40;19.88;;;6.75;;
74972;SDS011;63529;56.320;43.990;2023-02-01T04:32:06;19.70;;;6.70;;
74972;SDS011;63529;56.320;43.990;2023-02-01T04:34:33;18.92;;;6.78;;
74972;SDS011;63529;56.320;43.990;2023-02-01T04:36:59;22.90;;;8.07;;
74972;SDS011;63529;56.320;43.990;2023-02-01T04:39:25;21.45;;;8.20;;
74972;SDS011;63529;56.320;43.990;2023-02-01T04:41:51;21.27;;;7.80;;
74972;SDS011;63529;56.320;43.990;2023-02-01T04:44:17;21.63;;;8.40;;
74972;SDS011;63529;56.320;43.990;2023-02-01T04:46:44;18.00;;;6.05;;
74972;SDS011;63529;56.320;43.990;2023-02-01T04:49:11;31.27;;;9.95;;
74972;SDS011;63529;56.320;43.990;2023-02-01T04:51:39;24.38;;;8.07;;
74972;SDS011;63529;56.320;43.990;2023-02-01T04:54:06;18.23;;;6.47;;
74972;SDS011;63529;56.320;43.990;2023-02-01T04:56:32;19.23;;;7.75;;
74972;SDS011;63529;56.320;43.990;2023-02-01T04:59:00;26.67;;;9.10;;
74972;SDS011;63529;56.320;43.990;2023-02-01T05:01:27;20.20;;;6.97;;
74972;SDS011;63529;56.320;43.990;2023-02-01T05:03:53;19.17;;;7.13;;
74972;SDS011;63529;56.320;43.990;2023-02-01T05:06:19;24.00;;;7.80;;
74972;SDS011;63529;56.320;43.990;2023-02-01T05:08:45;19.35;;;7.45;;
74972;SDS011;63529;56.320;43.990;2023-02-01T05:11:11;16.67;;;6.55;;
74972;SDS011;63529;56.320;43.990;2023-02-01T05:13:58;18.17;;;6.38;;
74972;SDS011;63529;56.320;43.990;2023-02-01T05:16:25;19.65;;;6.40;;
74972;SDS011;63529;56.320;43.990;2023-02-01T05:18:51;28.77;;;9.18;;
74972;SDS011;63529;56.320;43.990;2023-02-01T05:21:17;21.08;;;8.02;;
74972;SDS011;63529;56.320;43.990;2023-02-01T05:23:43;26.02;;;8.63;;
74972;SDS011;63529;56.320;43.990;2023-02-01T05:26:27;27.92;;;9.85;;
74972;SDS011;63529;56.320;43.990;2023-02-01T05:28:53;22.20;;;8.00;;
74972;SDS011;63529;56.320;43.990;2023-02-01T05:31:19;17.27;;;6.10;;
74972;SDS011;63529;56.320;43.990;2023-02-01T05:33:46;20.98;;;5.47;;
74972;SDS011;63529;56.320;43.990;2023-02-01T05:36:12;21.73;;;7.90;;
74972;SDS011;63529;56.320;43.990;2023-02-01T05:38:38;22.27;;;7.90;;
74972;SDS011;63529;56.320;43.990;2023-02-01T05:41:04;20.80;;;8.05;;
74972;SDS011;63529;56.320;43.990;2023-02-01T05:43:30;26.52;;;7.70;;
74972;SDS011;63529;56.320;43.990;2023-02-01T05:45:56;21.33;;;7.50;;
74972;SDS011;63529;56.320;43.990;2023-02-01T05:48:22;20.80;;;7.53;;
74972;SDS011;63529;56.320;43.990;2023-02-01T05:50:48;21.35;;;8.13;;
74972;SDS011;63529;56.320;43.990;2023-02-01T05:53:13;20.02;;;7.57;;
74972;SDS011;63529;56.320;43.990;2023-02-01T05:55:41;24.90;;;8.57;;
74972;SDS011;63529;56.320;43.990;2023-02-01T05:58:07;20.98;;;7.82;;
74972;SDS011;63529;56.320;43.990;2023-02-01T06:00:34;24.25;;;6.22;;
74972;SDS011;63529;56.320;43.990;2023-02-01T06:03:00;20.10;;;6.80;;
74972;SDS011;63529;56.320;43.990;2023-02-01T06:05:27;27.42;;;7.68;;
74972;SDS011;63529;56.320;43.990;2023-02-01T06:07:53;26.17;;;8.77;;
74972;SDS011;63529;56.320;43.990;2023-02-01T06:10:18;27.83;;;8.55;;
74972;SDS011;63529;56.320;43.990;2023-02-01T06:12:45;28.38;;;8.18;;
74972;SDS011;63529;56.320;43.990;2023-02-01T06:15:12;20.60;;;7.50;;
74972;SDS011;63529;56.320;43.990;2023-02-01T06:17:41;25.25;;;8.90;;
74972;SDS011;63529;56.320;43.990;2023-02-01T06:20:09;22.23;;;8.43;;
74972;SDS011;63529;56.320;43.990;2023-02-01T06:22:36;21.70;;;7.28;;
74972;SDS011;63529;56.320;43.990;2023-02-01T06:25:05;21.98;;;8.10;;
74972;SDS011;63529;56.320;43.990;2023-02-01T06:27:32;24.38;;;7.70;;
74972;SDS011;63529;56.320;43.990;2023-02-01T06:29:58;23.42;;;8.35;;
74972;SDS011;63529;56.320;43.990;2023-02-01T06:32:24;22.50;;;8.32;;
74972;SDS011;63529;56.320;43.990;2023-02-01T06:34:50;15.90;;;6.82;;
74972;SDS011;63529;56.320;43.990;2023-02-01T06:37:22;24.35;;;8.93;;
74972;SDS011;63529;56.320;43.990;2023-02-01T06:39:50;22.73;;;7.30;;
74972;SDS011;63529;56.320;43.990;2023-02-01T06:42:16;18.80;;;7.00;;
74972;SDS011;63529;56.320;43.990;2023-02-01T06:44:42;16.73;;;6.88;;
74972;SDS011;63529;56.320;43.990;2023-02-01T06:47:08;17.27;;;5.82;;
74972;SDS011;63529;56.320;43.990;2023-02-01T06:49:34;21.55;;;7.78;;
74972;SDS011;63529;56.320;43.990;2023-02-01T06:52:00;18.13;;;7.05;;
74972;SDS011;63529;56.320;43.990;2023-02-01T06:54:26;17.85;;;7.78;;
74972;SDS011;63529;56.320;43.990;2023-02-01T06:56:52;23.52;;;8.65;;
74972;SDS011;63529;56.320;43.990;2023-02-01T06:59:18;20.65;;;8.05;;
74972;SDS011;63529;56.320;43.990;2023-02-01T07:01:44;21.40;;;7.82;;
74972;SDS011;63529;56.320;43.990;2023-02-01T07:04:11;16.98;;;7.18;;
74972;SDS011;63529;56.320;43.990;2023-02-01T07:06:37;21.17;;;7.43;;
74972;SDS011;63529;56.320;43.990;2023-02-01T07:09:04;21.92;;;7.75;;
74972;SDS011;63529;56.320;43.990;2023-02-01T07:11:29;22.05;;;7.93;;
74972;SDS011;63529;56.320;43.990;2023-02-01T07:13:56;15.25;;;6.40;;
74972;SDS011;63529;56.320;43.990;2023-02-01T07:16:22;15.98;;;6.30;;
74972;SDS011;63529;56.320;43.990;2023-02-01T07:18:49;16.95;;;6.65;;
74972;SDS011;63529;56.320;43.990;2023-02-01T07:21:16;20.52;;;7.65;;
74972;SDS011;63529;56.320;43.990;2023-02-01T07:23:42;17.98;;;7.28;;
74972;SDS011;63529;56.320;43.990;2023-02-01T07:26:10;18.30;;;6.55;;
74972;SDS011;63529;56.320;43.990;2023-02-01T07:28:40;20.27;;;7.43;;
74972;SDS011;63529;56.320;43.990;2023-02-01T07:31:07;18.85;;;7.38;;
74972;SDS011;63529;56.320;43.990;2023-02-01T07:33:36;20.23;;;7.10;;
74972;SDS011;63529;56.320;43.990;2023-02-01T07:36:03;17.90;;;7.20;;
74972;SDS011;63529;56.320;43.990;2023-02-01T07:38:31;21.35;;;7.85;;
74972;SDS011;63529;56.320;43.990;2023-02-01T07:40:58;22.02;;;8.80;;
74972;SDS011;63529;56.320;43.990;2023-02-01T07:43:25;19.73;;;8.35;;
74972;SDS011;63529;56.320;43.990;2023-02-01T07:45:52;20.40;;;7.43;;
74972;SDS011;63529;56.320;43.990;2023-02-01T07:48:19;16.35;;;6.82;;
74972;SDS011;63529;56.320;43.990;2023-02-01T07:50:46;21.00;;;7.97;;
74972;SDS011;63529;56.320;43.990;2023-02-01T07:53:12;18.58;;;7.47;;
74972;SDS011;63529;56.320;43.990;2023-02-01T07:55:39;22.17;;;8.77;;
74972;SDS011;63529;56.320;43.990;2023-02-01T07:58:05;16.83;;;6.22;;
74972;SDS011;63529;56.320;43.990;2023-02-01T08:00:31;17.33;;;7.15;;
74972;SDS011;63529;56.320;43.990;2023-02-01T08:03:16;18.20;;;7.35;;
74972;SDS011;63529;56.320;43.990;2023-02-01T08:05:42;17.50;;;7.43;;
74972;SDS011;63529;56.320;43.990;2023-02-01T08:08:08;16.17;;;6.97;;
74972;SDS011;63529;56.320;43.990;2023-02-01T08:10:34;15.65;;;6.72;;
74972;SDS011;63529;56.320;43.990;2023-02-01T08:13:01;20.40;;;7.60;;
74972;SDS011;63529;56.320;43.990;2023-02-01T08:15:28;19.42;;;7.53;;
74972;SDS011;63529;56.320;43.990;2023-02-01T08:17:54;21.65;;;8.98;;
74972;SDS011;63529;56.320;43.990;2023-02-01T08:20:21;25.42;;;8.65;;
74972;SDS011;63529;56.320;43.990;2023-02-01T08:22:57;17.95;;;5.97;;
74972;SDS011;63529;56.320;43.990;2023-02-01T08:25:23;20.88;;;8.20;;
74972;SDS011;63529;56.320;43.990;2023-02-01T08:27:49;17.58;;;7.22;;
74972;SDS011;63529;56.320;43.990;2023-02-01T08:30:15;18.73;;;7.05;;
74972;SDS011;63529;56.320;43.990;2023-02-01T08:32:41;16.77;;;6.78;;
74972;SDS011;63529;56.320;43.990;2023-02-01T08:35:07;23.40;;;7.15;;
74972;SDS011;63529;56.320;43.990;2023-02-01T08:37:34;18.90;;;6.88;;
74972;SDS011;63529;56.320;43.990;2023-02-01T08:40:00;18.92;;;7.72;;
74972;SDS011;63529;56.320;43.990;2023-02-01T08:42:27;20.65;;;7.95;;
74972;SDS011;63529;56.320;43.990;2023-02-01T08:45:12;15.82;;;5.40;;
74972;SDS011;63529;56.320;43.990;2023-02-01T08:47:38;14.77;;;5.68;;
74972;SDS011;63529;56.320;43.990;2023-02-01T08:50:03;17.85;;;6.30;;
74972;SDS011;63529;56.320;43.990;2023-02-01T08:52:30;17.95;;;6.97;;
74972;SDS011;63529;56.320;43.990;2023-02-01T08:54:56;19.00;;;7.50;;
74972;SDS011;63529;56.320;43.990;2023-02-01T08:57:22;20.50;;;6.90;;
74972;SDS011;63529;56.320;43.990;2023-02-01T08:59:48;14.40;;;6.78;;
74972;SDS011;63529;56.320;43.990;2023-02-01T09:02:15;17.65;;;6.90;;
74972;SDS011;63529;56.320;43.990;2023-02-01T09:04:41;19.55;;;7.28;;
74972;SDS011;63529;56.320;43.990;2023-02-01T09:07:08;20.67;;;7.50;;
74972;SDS011;63529;56.320;43.990;2023-02-01T09:09:35;18.65;;;7.05;;
74972;SDS011;63529;56.320;43.990;2023-02-01T09:12:02;18.70;;;7.28;;
74972;SDS011;63529;56.320;43.990;2023-02-01T09:14:28;20.45;;;7.68;;
74972;SDS011;63529;56.320;43.990;2023-02-01T09:16:55;23.05;;;8.60;;
74972;SDS011;63529;56.320;43.990;2023-02-01T09:19:21;19.35;;;7.15;;
74972;SDS011;63529;56.320;43.990;2023-02-01T09:21:47;20.42;;;8.07;;
74972;SDS011;63529;56.320;43.990;2023-02-01T09:24:13;17.58;;;7.13;;
74972;SDS011;63529;56.320;43.990;2023-02-01T09:26:39;15.98;;;6.45;;
74972;SDS011;63529;56.320;43.990;2023-02-01T09:29:05;21.92;;;7.97;;
74972;SDS011;63529;56.320;43.990;2023-02-01T09:31:37;22.77;;;8.90;;
74972;SDS011;63529;56.320;43.990;2023-02-01T09:34:04;23.23;;;8.05;;
74972;SDS011;63529;56.320;43.990;2023-02-01T09:36:31;22.08;;;8.55;;
74972;SDS011;63529;56.320;43.990;2023-02-01T09:47:13;23.63;;;8.38;;
74972;SDS011;63529;56.320;43.990;2023-02-01T09:49:49;20.23;;;7.32;;
74972;SDS011;63529;56.320;43.990;2023-02-01T09:52:29;21.98;;;8.85;;
74972;SDS011;63529;56.320;43.990;2023-02-01T09:55:03;21.85;;;8.35;;
74972;SDS011;63529;56.320;43.990;2023-02-01T10:00:34;20.88;;;7.70;;
74972;SDS011;63529;56.320;43.990;2023-02-01T10:03:03;17.40;;;6.13;;
74972;SDS011;63529;56.320;43.990;2023-02-01T10:05:43;21.40;;;8.57;;
74972;SDS011;63529;56.320;43.990;2023-02-01T10:11:28;23.08;;;7.47;;
74972;SDS011;63529;56.320;43.990;2023-02-01T10:17:02;17.63;;;7.40;;
74972;SDS011;63529;56.320;43.990;2023-02-01T10:19:44;23.95;;;7.95;;
74972;SDS011;63529;56.320;43.990;2023-02-01T10:22:29;25.35;;;8.98;;
74972;SDS011;63529;56.320;43.990;2023-02-01T10:25:13;21.75;;;7.32;;
74972;SDS011;63529;56.320;43.990;2023-02-01T10:27:48;21.70;;;8.82;;
74972;SDS011;63529;56.320;43.990;2023-02-01T10:30:24;26.13;;;9.02;;
74972;SDS011;63529;56.320;43.990;2023-02-01T10:32:56;25.83;;;9.85;;
74972;SDS011;63529;56.320;43.990;2023-02-01T10:35:31;24.83;;;8.68;;
74972;SDS011;63529;56.320;43.990;2023-02-01T10:38:02;17.90;;;7.25;;
74972;SDS011;63529;56.320;43.990;2023-02-01T10:40:37;26.95;;;9.27;;
74972;SDS011;63529;56.320;43.990;2023-02-01T10:43:03;19.13;;;6.65;;
74972;SDS011;63529;56.320;43.990;2023-02-01T10:45:30;22.42;;;8.55;;
74972;SDS011;63529;56.320;43.990;2023-02-01T10:47:58;22.05;;;8.45;;
74972;SDS011;63529;56.320;43.990;2023-02-01T10:55:53;26.27;;;9.90;;
74972;SDS011;63529;56.320;43.990;2023-02-01T10:58:27;24.77;;;8.68;;
74972;SDS011;63529;56.320;43.990;2023-02-01T11:00:58;21.10;;;7.75;;
74972;SDS011;63529;56.320;43.990;2023-02-01T11:03:41;25.17;;;8.55;;
74972;SDS011;63529;56.320;43.990;2023-02-01T11:08:50;22.95;;;9.00;;
74972;SDS011;63529;56.320;43.990;2023-02-01T11:11:21;23.80;;;8.05;;
74972;SDS011;63529;56.320;43.990;2023-02-01T11:13:58;20.45;;;7.35;;
74972;SDS011;63529;56.320;43.990;2023-02-01T11:16:30;23.80;;;8.30;;
74972;SDS011;63529;56.320;43.990;2023-02-01T11:19:06;22.02;;;8.05;;
74972;SDS011;63529;56.320;43.990;2023-02-01T11:21:33;14.65;;;6.47;;
74972;SDS011;63529;56.320;43.990;2023-02-01T11:24:00;21.67;;;8.20;;
74972;SDS011;63529;56.320;43.990;2023-02-01T11:26:32;25.02;;;9.35;;
74972;SDS011;63529;56.320;43.990;2023-02-01T11:28:59;24.95;;;8.18;;
74972;SDS011;63529;56.320;43.990;2023-02-01T11:31:29;24.33;;;8.88;;
74972;SDS011;63529;56.320;43.990;2023-02-01T11:33:59;22.42;;;9.30;;
74972;SDS011;63529;56.320;43.990;2023-02-01T11:36:32;20.63;;;8.18;;
74972;SDS011;63529;56.320;43.990;2023-02-01T11:39:17;23.80;;;8.50;;
74972;SDS011;63529;56.320;43.990;2023-02-01T11:44:39;26.20;;;8.63;;
74972;SDS011;63529;56.320;43.990;2023-02-01T11:49:59;26.55;;;9.02;;
74972;SDS011;63529;56.320;43.990;2023-02-01T12:06:31;25.20;;;10.07;;
74972;SDS011;63529;56.320;43.990;2023-02-01T12:14:36;23.65;;;9.80;;
74972;SDS011;63529;56.320;43.990;2023-02-01T12:28:55;22.75;;;8.00;;
74972;SDS011;63529;56.320;43.990;2023-02-01T12:39:56;25.27;;;9.23;;
74972;SDS011;63529;56.320;43.990;2023-02-01T12:42:43;31.52;;;10.50;;
74972;SDS011;63529;56.320;43.990;2023-02-01T12:45:42;29.15;;;9.48;;
74972;SDS011;63529;56.320;43.990;2023-02-01T12:48:25;28.63;;;10.07;;
74972;SDS011;63529;56.320;43.990;2023-02-01T12:51:16;26.00;;;10.07;;
74972;SDS011;63529;56.320;43.990;2023-02-01T12:53:54;29.73;;;9.70;;
74972;SDS011;63529;56.320;43.990;2023-02-01T13:10:35;36.10;;;10.23;;
74972;SDS011;63529;56.320;43.990;2023-02-01T13:13:14;30.30;;;9.38;;
74972;SDS011;63529;56.320;43.990;2023-02-01T13:15:43;34.58;;;10.30;;
74972;SDS011;63529;56.320;43.990;2023-02-01T13:18:16;21.67;;;7.65;;
74972;SDS011;63529;56.320;43.990;2023-02-01T13:25:56;28.65;;;9.00;;
74972;SDS011;63529;56.320;43.990;2023-02-01T13:39:28;30.73;;;10.65;;
74972;SDS011;63529;56.320;43.990;2023-02-01T13:42:01;28.13;;;9.95;;
74972;SDS011;63529;56.320;43.990;2023-02-01T13:44:43;30.83;;;9.80;;
74972;SDS011;63529;56.320;43.990;2023-02-01T13:47:32;31.63;;;10.18;;
74972;SDS011;63529;56.320;43.990;2023-02-01T13:50:29;33.88;;;10.60;;
74972;SDS011;63529;56.320;43.990;2023-02-01T13:55:38;29.17;;;9.55;;
74972;SDS011;63529;56.320;43.990;2023-02-01T13:58:33;26.90;;;10.30;;
74972;SDS011;63529;56.320;43.990;2023-02-01T14:06:42;34.88;;;11.77;;
74972;SDS011;63529;56.320;43.990;2023-02-01T14:11:39;36.85;;;11.65;;
74972;SDS011;63529;56.320;43.990;2023-02-01T14:19:33;27.65;;;9.80;;
74972;SDS011;63529;56.320;43.990;2023-02-01T14:22:31;31.13;;;11.40;;
74972;SDS011;63529;56.320;43.990;2023-02-01T14:24:49;29.88;;;10.48;;
74972;SDS011;63529;56.320;43.990;2023-02-01T14:29:54;31.67;;;9.77;;
74972;SDS011;63529;56.320;43.990;2023-02-01T14:32:25;33.50;;;10.07;;
74972;SDS011;63529;56.320;43.990;2023-02-01T14:34:53;34.58;;;11.35;;
74972;SDS011;63529;56.320;43.990;2023-02-01T15:01:22;33.85;;;9.85;;
74972;SDS011;63529;56.320;43.990;2023-02-01T15:06:41;34.88;;;12.10;;
74972;SDS011;63529;56.320;43.990;2023-02-01T15:14:27;36.53;;;11.57;;
74972;SDS011;63529;56.320;43.990;2023-02-01T15:16:54;26.52;;;9.25;;
74972;SDS011;63529;56.320;43.990;2023-02-01T15:19:22;30.80;;;10.13;;
74972;SDS011;63529;56.320;43.990;2023-02-01T15:21:53;27.90;;;10.80;;
74972;SDS011;63529;56.320;43.990;2023-02-01T15:24:24;33.22;;;9.93;;
74972;SDS011;63529;56.320;43.990;2023-02-01T15:26:50;23.23;;;7.95;;
74972;SDS011;63529;56.320;43.990;2023-02-01T15:29:18;28.50;;;9.90;;
74972;SDS011;63529;56.320;43.990;2023-02-01T15:31:49;33.00;;;10.98;;
74972;SDS011;63529;56.320;43.990;2023-02-01T15:34:17;28.58;;;10.20;;
74972;SDS011;63529;56.320;43.990;2023-02-01T15:36:44;28.05;;;8.60;;
74972;SDS011;63529;56.320;43.990;2023-02-01T15:39:11;34.70;;;11.48;;
74972;SDS011;63529;56.320;43.990;2023-02-01T15:42:09;29.98;;;9.82;;
74972;SDS011;63529;56.320;43.990;2023-02-01T15:44:41;38.72;;;11.82;;
74972;SDS011;63529;56.320;43.990;2023-02-01T15:47:18;32.13;;;11.40;;
74972;SDS011;63529;56.320;43.990;2023-02-01T15:49:47;41.92;;;11.95;;
74972;SDS011;63529;56.320;43.990;2023-02-01T15:54:52;36.83;;;12.63;;
74972;SDS011;63529;56.320;43.990;2023-02-01T15:57:24;38.13;;;11.80;;
74972;SDS011;63529;56.320;43.990;2023-02-01T15:59:56;39.17;;;12.88;;
74972;SDS011;63529;56.320;43.990;2023-02-01T16:05:01;33.28;;;11.45;;
74972;SDS011;63529;56.320;43.990;2023-02-01T16:07:29;36.72;;;12.15;;
74972;SDS011;63529;56.320;43.990;2023-02-01T16:09:58;31.92;;;11.27;;
74972;SDS011;63529;56.320;43.990;2023-02-01T16:12:30;42.40;;;12.23;;
74972;SDS011;63529;56.320;43.990;2023-02-01T16:14:57;33.22;;;11.77;;
74972;SDS011;63529;56.320;43.990;2023-02-01T16:17:41;37.45;;;12.38;;
74972;SDS011;63529;56.320;43.990;2023-02-01T16:20:09;42.13;;;12.35;;
74972;SDS011;63529;56.320;43.990;2023-02-01T16:22:35;30.00;;;10.68;;
74972;SDS011;63529;56.320;43.990;2023-02-01T16:25:01;42.15;;;13.50;;
74972;SDS011;63529;56.320;43.990;2023-02-01T16:27:28;32.47;;;11.35;;
74972;SDS011;63529;56.320;43.990;2023-02-01T16:29:54;47.53;;;13.70;;
74972;SDS011;63529;56.320;43.990;2023-02-01T16:32:22;40.65;;;14.35;;
74972;SDS011;63529;56.320;43.990;2023-02-01T16:34:48;37.83;;;11.80;;
74972;SDS011;63529;56.320;43.990;2023-02-01T16:37:20;40.85;;;12.85;;
74972;SDS011;63529;56.320;43.990;2023-02-01T16:39:48;42.08;;;13.07;;
74972;SDS011;63529;56.320;43.990;2023-02-01T16:42:15;40.15;;;12.23;;
74972;SDS011;63529;56.320;43.990;2023-02-01T16:44:41;42.90;;;13.23;;
74972;SDS011;63529;56.320;43.990;2023-02-01T16:47:18;34.80;;;11.27;;
74972;SDS011;63529;56.320;43.990;2023-02-01T16:49:45;38.10;;;13.80;;
74972;SDS011;63529;56.320;43.990;2023-02-01T16:52:30;39.63;;;12.82;;
74972;SDS011;63529;56.320;43.990;2023-02-01T16:54:56;41.08;;;14.18;;
74972;SDS011;63529;56.320;43.990;2023-02-01T16:57:21;42.13;;;13.65;;
74972;SDS011;63529;56.320;43.990;2023-02-01T16:59:53;47.47;;;13.98;;
74972;SDS011;63529;56.320;43.990;2023-02-01T17:02:19;40.10;;;12.60;;
74972;SDS011;63529;56.320;43.990;2023-02-01T17:04:46;48.17;;;15.18;;
74972;SDS011;63529;56.320;43.990;2023-02-01T17:07:14;44.10;;;15.07;;
74972;SDS011;63529;56.320;43.990;2023-02-01T17:09:41;44.40;;;14.23;;
74972;SDS011;63529;56.320;43.990;2023-02-01T17:12:14;49.90;;;15.27;;
74972;SDS011;63529;56.320;43.990;2023-02-01T17:15:02;38.70;;;13.48;;
74972;SDS011;63529;56.320;43.990;2023-02-01T17:17:31;40.10;;;12.77;;
74972;SDS011;63529;56.320;43.990;2023-02-01T17:20:01;47.03;;;15.02;;
74972;SDS011;63529;56.320;43.990;2023-02-01T17:22:29;49.03;;;15.02;;
74972;SDS011;63529;56.320;43.990;2023-02-01T17:24:54;51.45;;;15.63;;
74972;SDS011;63529;56.320;43.990;2023-02-01T17:27:20;47.75;;;14.80;;
74972;SDS011;63529;56.320;43.990;2023-02-01T17:29:46;51.53;;;16.48;;
74972;SDS011;63529;56.320;43.990;2023-02-01T17:32:15;45.80;;;14.60;;
74972;SDS011;63529;56.320;43.990;2023-02-01T17:34:44;45.38;;;15.60;;
74972;SDS011;63529;56.320;43.990;2023-02-01T17:37:29;43.03;;;14.57;;
74972;SDS011;63529;56.320;43.990;2023-02-01T17:39:57;47.53;;;14.57;;
74972;SDS011;63529;56.320;43.990;2023-02-01T17:42:24;49.97;;;13.68;;
74972;SDS011;63529;56.320;43.990;2023-02-01T17:44:53;39.40;;;12.90;;
74972;SDS011;63529;56.320;43.990;2023-02-01T17:47:21;43.38;;;14.57;;